createdAt,value
2023-05-19T00:01:15.293Z,20.71
2023-05-19T00:03:53.899Z,20.70
2023-05-19T00:06:29.516Z,20.70
2023-05-19T00:09:00.476Z,20.68
2023-05-19T00:11:30.023Z,20.67
2023-05-19T00:14:03.194Z,20.67
2023-05-19T00:16:32.601Z,20.65
2023-05-19T00:19:03.726Z,20.64
2023-05-19T00:21:33.122Z,20.61
2023-05-19T00:24:01.504Z,20.61
2023-05-19T00:26:29.979Z,20.60
2023-05-19T00:29:07.488Z,20.58
2023-05-19T00:31:36.627Z,20.56
2023-05-19T00:34:05.191Z,20.52
2023-05-19T00:36:33.832Z,20.49
2023-05-19T00:39:02.598Z,20.46
2023-05-19T00:41:31.254Z,20.43
2023-05-19T00:43:59.756Z,20.39
2023-05-19T00:46:30.478Z,20.38
2023-05-19T00:48:58.956Z,20.36
2023-05-19T00:51:29.900Z,20.34
2023-05-19T00:53:59.366Z,20.33
2023-05-19T00:56:28.200Z,20.30
2023-05-19T00:58:56.691Z,20.27
2023-05-19T01:01:26.922Z,20.25
2023-05-19T01:03:59.187Z,20.23
2023-05-19T01:06:29.700Z,20.19
2023-05-19T01:08:58.690Z,20.18
2023-05-19T01:11:27.130Z,20.17
2023-05-19T01:13:55.993Z,20.16
2023-05-19T01:16:32.234Z,20.14
2023-05-19T01:19:15.434Z,20.13
2023-05-19T01:22:23.694Z,20.09
2023-05-19T01:25:55.251Z,20.03
2023-05-19T01:29:03.137Z,20.02
2023-05-19T01:31:34.244Z,19.98
2023-05-19T01:34:04.998Z,19.98
2023-05-19T01:36:34.734Z,19.97
2023-05-19T01:39:05.275Z,19.97
2023-05-19T01:41:34.759Z,19.95
2023-05-19T01:44:04.275Z,19.95
2023-05-19T01:46:34.765Z,19.94
2023-05-19T01:49:05.505Z,19.93
2023-05-19T01:51:34.352Z,19.92
2023-05-19T01:54:03.108Z,19.90
2023-05-19T01:56:43.255Z,19.86
2023-05-19T01:59:32.458Z,19.80
2023-05-19T02:02:07.469Z,19.76
2023-05-19T02:04:45.750Z,19.73
2023-05-19T02:07:22.106Z,19.71
2023-05-19T02:10:04.037Z,19.68
2023-05-19T02:12:37.714Z,19.67
2023-05-19T02:15:10.794Z,19.65
2023-05-19T02:17:47.835Z,19.65
2023-05-19T02:20:17.321Z,19.62
2023-05-19T02:22:46.584Z,19.61
2023-05-19T02:25:15.557Z,19.60
2023-05-19T02:27:44.463Z,19.59
2023-05-19T02:30:13.564Z,19.57
2023-05-19T02:32:46.851Z,19.55
2023-05-19T02:35:15.702Z,19.53
2023-05-19T02:37:44.360Z,19.51
2023-05-19T02:40:13.142Z,19.47
2023-05-19T02:42:41.538Z,19.45
2023-05-19T02:45:11.911Z,19.44
2023-05-19T02:47:44.211Z,19.40
2023-05-19T02:50:12.884Z,19.39
2023-05-19T02:52:41.566Z,19.36
2023-05-19T02:55:16.886Z,19.35
2023-05-19T02:57:45.586Z,19.33
2023-05-19T03:00:15.570Z,19.32
2023-05-19T03:02:46.974Z,19.32
2023-05-19T03:05:15.804Z,19.29
2023-05-19T03:07:44.329Z,19.28
2023-05-19T03:10:12.866Z,19.27
2023-05-19T03:12:41.310Z,19.25
2023-05-19T03:15:13.112Z,19.24
2023-05-19T03:17:41.690Z,19.24
2023-05-19T03:20:13.123Z,19.24
2023-05-19T03:22:41.802Z,19.22
2023-05-19T03:25:11.389Z,19.18
2023-05-19T03:27:40.275Z,19.16
2023-05-19T03:30:10.825Z,19.13
2023-05-19T03:32:52.813Z,19.09
2023-05-19T03:35:22.996Z,19.08
2023-05-19T03:37:51.479Z,19.08
2023-05-19T03:40:19.958Z,19.06
2023-05-19T03:42:49.920Z,19.05
2023-05-19T03:45:18.626Z,19.04
2023-05-19T03:47:51.062Z,19.03
2023-05-19T03:50:44.681Z,19.00
2023-05-19T03:53:26.403Z,18.99
2023-05-19T03:55:56.731Z,18.98
2023-05-19T03:58:25.688Z,18.98
2023-05-19T04:00:55.516Z,18.97
2023-05-19T04:03:26.047Z,18.96
2023-05-19T04:05:56.260Z,18.96
2023-05-19T04:08:24.807Z,18.95
2023-05-19T04:10:53.488Z,18.94
2023-05-19T04:13:23.014Z,18.96
2023-05-19T04:15:51.557Z,18.94
2023-05-19T04:18:20.131Z,18.94
2023-05-19T04:20:48.919Z,18.94
2023-05-19T04:23:18.820Z,18.93
2023-05-19T04:25:48.766Z,18.92
2023-05-19T04:28:17.910Z,18.91
2023-05-19T04:30:47.314Z,18.90
2023-05-19T04:33:15.986Z,18.89
2023-05-19T04:35:45.200Z,18.85
2023-05-19T04:38:18.962Z,18.85
2023-05-19T04:40:52.082Z,18.86
2023-05-19T04:43:22.298Z,18.85
2023-05-19T04:45:52.171Z,18.85
2023-05-19T04:48:23.410Z,18.85
2023-05-19T04:50:53.153Z,18.82
2023-05-19T04:53:23.024Z,18.81
2023-05-19T04:55:52.991Z,18.77
2023-05-19T04:58:21.424Z,18.74
2023-05-19T05:00:50.780Z,18.75
2023-05-19T05:03:22.925Z,18.74
2023-05-19T05:05:52.967Z,18.71
2023-05-19T05:08:23.479Z,18.69
2023-05-19T05:10:55.585Z,18.69
2023-05-19T05:13:26.053Z,18.70
2023-05-19T05:15:56.316Z,18.71
2023-05-19T05:18:25.606Z,18.71
2023-05-19T05:20:55.660Z,18.72
2023-05-19T05:23:25.003Z,18.71
2023-05-19T05:25:56.413Z,18.74
2023-05-19T05:28:25.526Z,18.71
2023-05-19T05:30:56.398Z,18.73
2023-05-19T05:33:27.605Z,18.74
2023-05-19T05:35:56.263Z,18.74
2023-05-19T05:38:26.129Z,18.71
2023-05-19T05:40:56.383Z,18.69
2023-05-19T05:43:24.843Z,18.66
2023-05-19T05:45:58.978Z,18.62
2023-05-19T05:48:29.085Z,18.60
2023-05-19T05:50:59.542Z,18.60
2023-05-19T05:53:33.198Z,18.56
2023-05-19T05:56:06.414Z,18.55
2023-05-19T05:58:44.013Z,18.55
2023-05-19T06:01:12.959Z,18.55
2023-05-19T06:03:45.062Z,18.56
2023-05-19T06:06:16.925Z,18.54
2023-05-19T06:08:45.568Z,18.54
2023-05-19T06:11:15.925Z,18.58
2023-05-19T06:13:44.612Z,18.61
2023-05-19T06:16:20.909Z,18.65
2023-05-19T06:18:49.758Z,18.67
2023-05-19T06:21:18.228Z,18.67
2023-05-19T06:23:46.997Z,18.70
2023-05-19T06:26:16.824Z,18.72
2023-05-19T06:28:46.416Z,18.75
2023-05-19T06:31:16.481Z,18.80
2023-05-19T06:33:53.757Z,18.83
2023-05-19T06:36:22.859Z,18.88
2023-05-19T06:38:51.758Z,18.92
2023-05-19T06:41:21.960Z,18.95
2023-05-19T06:43:52.937Z,18.96
2023-05-19T06:46:23.974Z,18.98
2023-05-19T06:48:53.359Z,19.01
2023-05-19T06:51:25.760Z,19.05
2023-05-19T06:53:58.363Z,19.06
2023-05-19T06:56:28.340Z,19.06
2023-05-19T06:58:57.711Z,19.04
2023-05-19T07:01:32.113Z,19.02
2023-05-19T07:04:01.644Z,19.01
2023-05-19T07:06:31.696Z,19.04
2023-05-19T07:09:00.134Z,19.08
2023-05-19T07:11:31.803Z,19.09
2023-05-19T07:14:00.541Z,19.09
2023-05-19T07:16:32.521Z,19.07
2023-05-19T07:19:01.361Z,19.10
2023-05-19T07:21:30.149Z,19.12
2023-05-19T07:23:58.732Z,19.12
2023-05-19T07:26:30.956Z,19.14
2023-05-19T07:28:59.394Z,19.14
2023-05-19T07:31:27.732Z,19.16
2023-05-19T07:33:56.184Z,19.21
2023-05-19T07:36:25.004Z,19.24
2023-05-19T07:38:53.727Z,19.25
2023-05-19T07:41:23.277Z,19.27
2023-05-19T07:43:53.104Z,19.28
2023-05-19T07:46:22.022Z,19.29
2023-05-19T07:48:50.900Z,19.28
2023-05-19T07:51:19.437Z,19.33
2023-05-19T07:53:48.165Z,19.38
2023-05-19T07:56:17.060Z,19.45
2023-05-19T07:58:45.855Z,19.54
2023-05-19T08:01:15.653Z,19.61
2023-05-19T08:03:44.123Z,19.71
2023-05-19T08:06:12.741Z,19.80
2023-05-19T08:08:42.173Z,19.90
2023-05-19T08:11:10.656Z,19.96
2023-05-19T08:13:39.173Z,20.02
2023-05-19T08:16:08.579Z,20.09
2023-05-19T08:18:38.855Z,20.19
2023-05-19T08:21:07.454Z,20.29
2023-05-19T08:23:37.269Z,20.40
2023-05-19T08:26:06.313Z,20.48
2023-05-19T08:28:34.760Z,20.55
2023-05-19T08:31:03.297Z,20.62
2023-05-19T08:33:32.154Z,20.67
2023-05-19T08:36:02.178Z,20.74
2023-05-19T08:38:31.756Z,20.81
2023-05-19T08:41:00.253Z,20.91
2023-05-19T08:43:28.929Z,21.00
2023-05-19T08:45:58.293Z,21.08
2023-05-19T08:48:30.917Z,21.18
2023-05-19T08:51:15.891Z,21.24
2023-05-19T08:53:50.252Z,21.29
2023-05-19T08:56:24.328Z,21.35
2023-05-19T08:58:54.043Z,21.42
2023-05-19T09:01:24.521Z,21.48
2023-05-19T09:03:53.756Z,21.52
2023-05-19T09:06:25.022Z,21.55
2023-05-19T09:08:53.692Z,21.58
2023-05-19T09:11:22.802Z,21.62
2023-05-19T09:13:51.474Z,21.62
2023-05-19T09:16:19.985Z,21.66
2023-05-19T09:18:57.029Z,21.73
2023-05-19T09:21:34.060Z,21.76
2023-05-19T09:24:07.873Z,21.80
2023-05-19T09:26:40.949Z,21.87
2023-05-19T09:29:13.945Z,21.93
2023-05-19T09:31:51.519Z,22.02
2023-05-19T09:34:21.119Z,22.08
2023-05-19T09:36:51.911Z,22.14
2023-05-19T09:39:23.095Z,22.21
2023-05-19T09:41:54.420Z,22.33
2023-05-19T09:44:24.296Z,22.39
2023-05-19T09:46:54.400Z,22.46
2023-05-19T09:49:26.135Z,22.53
2023-05-19T09:51:58.713Z,22.59
2023-05-19T09:54:29.500Z,22.66
2023-05-19T09:57:00.642Z,22.73
2023-05-19T09:59:33.529Z,22.78
2023-05-19T10:02:03.365Z,22.87
2023-05-19T10:04:32.720Z,22.95
2023-05-19T10:07:06.014Z,23.03
2023-05-19T10:09:37.636Z,23.09
2023-05-19T10:12:07.144Z,23.11
2023-05-19T10:14:35.843Z,23.13
2023-05-19T10:17:05.510Z,23.21
2023-05-19T10:19:35.474Z,23.27
2023-05-19T10:22:06.767Z,23.36
2023-05-19T10:24:35.713Z,23.42
2023-05-19T10:27:09.095Z,23.50
2023-05-19T10:29:41.792Z,23.58
2023-05-19T10:32:16.784Z,23.66
2023-05-19T10:35:15.688Z,23.68
2023-05-19T10:37:53.036Z,23.67
2023-05-19T10:40:28.856Z,23.69
2023-05-19T10:43:23.303Z,23.72
2023-05-19T10:45:55.109Z,23.77
2023-05-19T10:48:23.654Z,23.83
2023-05-19T10:50:55.884Z,23.89
2023-05-19T10:53:33.001Z,23.97
2023-05-19T10:56:04.385Z,24.02
2023-05-19T10:58:52.220Z,24.01
2023-05-19T11:01:22.559Z,24.00
2023-05-19T11:03:53.616Z,24.02
2023-05-19T11:06:27.206Z,24.12
2023-05-19T11:09:02.171Z,24.16
2023-05-19T11:11:48.146Z,24.16
2023-05-19T11:14:19.627Z,24.14
2023-05-19T11:16:49.562Z,24.20
2023-05-19T11:19:27.487Z,24.25
2023-05-19T11:21:57.640Z,24.27
2023-05-19T11:24:39.934Z,24.29
2023-05-19T11:27:28.952Z,24.28
2023-05-19T11:29:59.281Z,24.27
2023-05-19T11:32:29.899Z,24.29
2023-05-19T11:34:59.214Z,24.35
2023-05-19T11:37:29.314Z,24.43
2023-05-19T11:40:01.635Z,24.52
2023-05-19T11:42:30.152Z,24.60
2023-05-19T11:44:58.762Z,24.64
2023-05-19T11:47:28.559Z,24.67
2023-05-19T11:49:57.657Z,24.71
2023-05-19T11:52:27.475Z,24.80
2023-05-19T11:54:56.850Z,24.88
2023-05-19T11:57:28.232Z,24.92
2023-05-19T11:59:57.029Z,24.95
2023-05-19T12:02:27.823Z,24.99
2023-05-19T12:04:56.639Z,25.04
2023-05-19T12:07:26.285Z,25.10
2023-05-19T12:09:56.487Z,25.12
2023-05-19T12:12:24.909Z,25.15
2023-05-19T12:14:55.108Z,25.21
2023-05-19T12:17:24.461Z,25.29
2023-05-19T12:19:53.096Z,25.30
2023-05-19T12:22:21.637Z,25.34
2023-05-19T12:24:51.994Z,25.41
2023-05-19T12:27:22.374Z,25.45
2023-05-19T12:29:52.845Z,25.53
2023-05-19T12:32:25.623Z,25.56
2023-05-19T12:34:54.822Z,25.54
2023-05-19T12:37:23.600Z,25.53
2023-05-19T12:39:52.276Z,25.52
2023-05-19T12:42:20.696Z,25.50
2023-05-19T12:44:51.587Z,25.49
2023-05-19T12:47:23.894Z,25.51
2023-05-19T12:49:57.389Z,25.49
2023-05-19T12:52:26.213Z,25.47
2023-05-19T12:55:01.399Z,25.50
2023-05-19T12:57:31.613Z,25.53
2023-05-19T13:00:07.051Z,25.57
2023-05-19T13:02:56.104Z,25.60
2023-05-19T13:05:25.072Z,25.62
2023-05-19T13:07:58.526Z,25.67
2023-05-19T13:10:28.211Z,25.70
2023-05-19T13:12:58.902Z,25.75
2023-05-19T13:15:31.712Z,25.79
2023-05-19T13:18:03.374Z,25.85
2023-05-19T13:20:32.325Z,25.88
2023-05-19T13:23:01.627Z,25.86
2023-05-19T13:25:30.734Z,25.88
2023-05-19T13:28:02.105Z,25.91
2023-05-19T13:30:30.766Z,25.98
2023-05-19T13:32:59.471Z,26.03
2023-05-19T13:35:29.924Z,26.09
2023-05-19T13:37:58.799Z,26.14
2023-05-19T13:40:28.286Z,26.18
2023-05-19T13:42:56.936Z,26.21
2023-05-19T13:45:25.640Z,26.21
2023-05-19T13:47:54.429Z,26.26
2023-05-19T13:50:23.146Z,26.31
2023-05-19T13:52:53.801Z,26.33
2023-05-19T13:55:23.356Z,26.37
2023-05-19T13:57:52.089Z,26.33
2023-05-19T14:00:21.486Z,26.26
2023-05-19T14:02:50.264Z,26.20
2023-05-19T14:05:18.908Z,26.20
2023-05-19T14:07:47.589Z,26.21
2023-05-19T14:10:17.756Z,26.18
2023-05-19T14:13:12.320Z,26.17
2023-05-19T14:15:37.825Z,26.13
2023-05-19T14:18:07.374Z,26.08
2023-05-19T14:20:36.915Z,26.08
2023-05-19T14:23:05.595Z,26.08
2023-05-19T14:25:35.823Z,26.08
2023-05-19T14:28:04.377Z,26.06
2023-05-19T14:30:33.613Z,26.08
2023-05-19T14:33:02.114Z,26.12
2023-05-19T14:35:31.845Z,26.16
2023-05-19T14:38:00.310Z,26.21
2023-05-19T14:40:28.746Z,26.28
2023-05-19T14:42:58.840Z,26.31
2023-05-19T14:45:27.473Z,26.28
2023-05-19T14:47:55.992Z,26.25
2023-05-19T14:50:24.436Z,26.25
2023-05-19T14:52:52.779Z,26.27
2023-05-19T14:55:21.299Z,26.28
2023-05-19T14:57:50.165Z,26.31
2023-05-19T15:02:49.535Z,26.44
2023-05-19T15:05:18.121Z,26.51
2023-05-19T15:07:46.501Z,26.52
2023-05-19T15:10:14.996Z,26.53
2023-05-19T15:12:43.831Z,26.56
2023-05-19T15:15:13.078Z,26.57
2023-05-19T15:17:43.066Z,26.55
2023-05-19T15:20:13.431Z,26.51
2023-05-19T15:22:41.843Z,26.50
2023-05-19T15:25:11.362Z,26.50
2023-05-19T15:27:40.177Z,26.48
2023-05-19T15:30:09.965Z,26.43
2023-05-19T15:32:38.669Z,26.39
2023-05-19T15:35:10.835Z,26.37
2023-05-19T15:37:39.320Z,26.31
2023-05-19T15:40:10.531Z,26.30
2023-05-19T15:42:39.276Z,26.29
2023-05-19T15:45:10.104Z,26.27
2023-05-19T15:47:38.776Z,26.25
2023-05-19T15:50:11.239Z,26.22
2023-05-19T15:52:39.925Z,26.17
2023-05-19T15:55:10.204Z,26.13
2023-05-19T15:57:38.988Z,26.10
2023-05-19T16:00:09.395Z,26.09
2023-05-19T16:02:37.871Z,26.08
2023-05-19T16:05:09.141Z,26.10
2023-05-19T16:07:37.559Z,26.11
2023-05-19T16:10:07.434Z,26.13
2023-05-19T16:12:36.720Z,26.11
2023-05-19T16:15:06.375Z,26.11
2023-05-19T16:17:35.394Z,26.12
2023-05-19T16:20:04.060Z,26.12
2023-05-19T16:22:34.314Z,26.14
2023-05-19T16:25:02.815Z,26.16
2023-05-19T16:27:31.633Z,26.18
2023-05-19T16:30:01.115Z,26.20
2023-05-19T16:32:29.799Z,26.19
2023-05-19T16:34:58.261Z,26.18
2023-05-19T16:37:26.678Z,26.16
2023-05-19T16:39:56.586Z,26.16
2023-05-19T16:42:25.428Z,26.13
2023-05-19T16:44:53.995Z,26.13
2023-05-19T16:47:22.396Z,26.12
2023-05-19T16:49:50.820Z,26.12
2023-05-19T16:52:20.069Z,26.11
2023-05-19T16:54:49.322Z,26.13
2023-05-19T16:57:19.248Z,26.14
2023-05-19T16:59:49.602Z,26.10
2023-05-19T17:02:18.165Z,26.06
2023-05-19T17:04:46.960Z,26.04
2023-05-19T17:07:16.085Z,26.03
2023-05-19T17:09:45.221Z,26.02
2023-05-19T17:12:13.839Z,26.05
2023-05-19T17:14:44.190Z,26.05
2023-05-19T17:17:12.638Z,26.08
2023-05-19T17:19:41.094Z,26.08
2023-05-19T17:22:09.770Z,26.06
2023-05-19T17:24:38.309Z,26.02
2023-05-19T17:27:06.953Z,25.99
2023-05-19T17:29:36.970Z,25.98
2023-05-19T17:32:07.912Z,25.95
2023-05-19T17:34:36.425Z,25.89
2023-05-19T17:37:05.181Z,25.86
2023-05-19T17:39:33.983Z,25.85
2023-05-19T17:42:03.579Z,25.85
2023-05-19T17:44:32.071Z,25.86
2023-05-19T17:47:01.633Z,25.83
2023-05-19T17:49:31.496Z,25.84
2023-05-19T17:52:00.927Z,25.82
2023-05-19T17:54:30.067Z,25.81
2023-05-19T17:57:03.355Z,25.77
2023-05-19T17:59:32.792Z,25.77
2023-05-19T18:02:02.975Z,25.76
2023-05-19T18:04:34.360Z,25.76
2023-05-19T18:07:05.659Z,25.72
2023-05-19T18:09:38.566Z,25.71
2023-05-19T18:12:08.081Z,25.72
2023-05-19T18:14:36.730Z,25.71
2023-05-19T18:17:05.755Z,25.75
2023-05-19T18:19:35.582Z,25.76
2023-05-19T18:22:04.167Z,25.77
2023-05-19T18:24:32.720Z,25.77
2023-05-19T18:27:01.715Z,25.72
2023-05-19T18:29:30.134Z,25.68
2023-05-19T18:31:58.665Z,25.64
2023-05-19T18:34:27.712Z,25.64
2023-05-19T18:36:57.626Z,25.63
2023-05-19T18:39:27.950Z,25.56
2023-05-19T18:41:57.872Z,25.53
2023-05-19T18:44:26.410Z,25.50
2023-05-19T18:46:54.908Z,25.46
2023-05-19T18:49:25.343Z,25.43
2023-05-19T18:51:54.055Z,25.41
2023-05-19T18:54:24.012Z,25.41
2023-05-19T18:56:52.479Z,25.39
2023-05-19T18:59:20.879Z,25.35
2023-05-19T19:01:49.628Z,25.31
2023-05-19T19:04:18.269Z,25.27
2023-05-19T19:06:47.759Z,25.23
2023-05-19T19:09:17.002Z,25.20
2023-05-19T19:11:47.357Z,25.16
2023-05-19T19:14:15.957Z,25.14
2023-05-19T19:16:44.778Z,25.10
2023-05-19T19:19:13.416Z,25.10
2023-05-19T19:21:43.252Z,25.08
2023-05-19T19:24:11.741Z,25.06
2023-05-19T19:26:40.274Z,25.05
2023-05-19T19:29:10.909Z,25.07
2023-05-19T19:31:39.671Z,25.06
2023-05-19T19:34:09.478Z,25.05
2023-05-19T19:36:38.226Z,25.04
2023-05-19T19:39:06.798Z,25.03
2023-05-19T19:41:35.710Z,25.01
2023-05-19T19:44:04.217Z,24.99
2023-05-19T19:46:34.139Z,24.99
2023-05-19T19:49:02.627Z,24.94
2023-05-19T19:51:31.622Z,24.93
2023-05-19T19:54:00.348Z,24.92
2023-05-19T19:56:28.781Z,24.91
2023-05-19T19:58:59.064Z,24.91
2023-05-19T20:01:28.215Z,24.87
2023-05-19T20:03:58.659Z,24.88
2023-05-19T20:06:27.439Z,24.86
2023-05-19T20:08:56.013Z,24.84
2023-05-19T20:11:26.589Z,24.83
2023-05-19T20:13:55.095Z,24.81
2023-05-19T20:16:24.222Z,24.79
2023-05-19T20:18:52.796Z,24.77
2023-05-19T20:21:22.708Z,24.77
2023-05-19T20:23:51.225Z,24.75
2023-05-19T20:26:20.566Z,24.74
2023-05-19T20:28:49.104Z,24.71
2023-05-19T20:31:17.515Z,24.69
2023-05-19T20:33:46.210Z,24.67
2023-05-19T20:36:14.703Z,24.65
2023-05-19T20:38:44.948Z,24.64
2023-05-19T20:41:13.399Z,24.63
2023-05-19T20:43:42.421Z,24.61
2023-05-19T20:46:11.183Z,24.61
2023-05-19T20:48:39.609Z,24.59
2023-05-19T20:51:08.478Z,24.59
2023-05-19T20:53:37.150Z,24.56
2023-05-19T20:56:10.536Z,24.54
2023-05-19T20:58:39.107Z,24.52
2023-05-19T21:01:07.667Z,24.50
2023-05-19T21:03:36.144Z,24.48
2023-05-19T21:06:05.045Z,24.46
2023-05-19T21:08:33.449Z,24.43
2023-05-19T21:11:01.849Z,24.41
2023-05-19T21:13:32.191Z,24.39
2023-05-19T21:16:00.943Z,24.36
2023-05-19T21:18:29.699Z,24.32
2023-05-19T21:20:58.385Z,24.28
2023-05-19T21:23:26.940Z,24.26
2023-05-19T21:25:57.145Z,24.24
2023-05-19T21:28:25.757Z,24.23
2023-05-19T21:30:56.436Z,24.21
2023-05-19T21:33:24.887Z,24.16
2023-05-19T21:35:53.295Z,24.15
2023-05-19T21:38:24.361Z,24.11
2023-05-19T21:40:53.320Z,24.08
2023-05-19T21:43:22.558Z,24.06
2023-05-19T21:45:50.973Z,24.04
2023-05-19T21:48:21.521Z,24.04
2023-05-19T21:50:54.662Z,24.04
2023-05-19T21:53:23.265Z,24.03
2023-05-19T21:55:51.855Z,24.03
2023-05-19T21:58:20.776Z,24.03
2023-05-19T22:00:54.445Z,24.03
2023-05-19T22:03:24.608Z,24.00
2023-05-19T22:05:55.302Z,23.98
2023-05-19T22:08:24.539Z,23.97
2023-05-19T22:10:53.915Z,23.97
2023-05-19T22:13:22.725Z,23.95
2023-05-19T22:15:51.322Z,23.93
2023-05-19T22:18:19.983Z,23.93
2023-05-19T22:20:50.148Z,23.92
2023-05-19T22:23:18.781Z,23.89
2023-05-19T22:25:47.559Z,23.85
2023-05-19T22:28:16.536Z,23.85
2023-05-19T22:30:45.359Z,23.82
2023-05-19T22:33:14.714Z,23.81
2023-05-19T22:35:43.596Z,23.78
2023-05-19T22:38:13.521Z,23.74
2023-05-19T22:40:42.022Z,23.72
2023-05-19T22:43:10.654Z,23.68
2023-05-19T22:45:39.361Z,23.65
2023-05-19T22:48:08.221Z,23.63
2023-05-19T22:50:36.850Z,23.63
2023-05-19T22:53:05.678Z,23.62
2023-05-19T22:55:36.148Z,23.60
2023-05-19T22:58:04.845Z,23.59
2023-05-19T23:00:33.504Z,23.57
2023-05-19T23:03:02.078Z,23.55
2023-05-19T23:05:31.068Z,23.54
2023-05-19T23:07:59.816Z,23.54
2023-05-19T23:10:28.529Z,23.51
2023-05-19T23:12:58.499Z,23.50
2023-05-19T23:15:26.987Z,23.48
2023-05-19T23:17:55.502Z,23.44
2023-05-19T23:20:24.450Z,23.44
2023-05-19T23:22:52.890Z,23.41
2023-05-19T23:25:21.346Z,23.40
2023-05-19T23:27:50.395Z,23.37
2023-05-19T23:30:20.339Z,23.35
2023-05-19T23:32:48.747Z,23.32
2023-05-19T23:35:18.720Z,23.30
2023-05-19T23:37:47.472Z,23.27
2023-05-19T23:40:16.413Z,23.26
2023-05-19T23:42:45.383Z,23.21
2023-05-19T23:45:13.797Z,23.18
2023-05-19T23:47:43.978Z,23.16
2023-05-19T23:50:12.760Z,23.13
2023-05-19T23:52:41.183Z,23.11
2023-05-19T23:55:12.720Z,23.08
2023-05-19T23:57:41.200Z,23.07
